Time;durP1;ratioP1;P1;durP2;ratioP2;P2;SDS_P1;SDS_P2;PMS_P1;PMS_P2;Temp;Humidity;BMP_temperature;BMP_pressure;BME280_temperature;BME280_humidity;BME280_pressure;Samples;Min_cycle;Max_cycle;Signal;HPM_P1;HPM_P2
2022/06/22 00:02:12;;;;;;;;;;;;;;;18.90;44.69;97485.06;4985920;28;19930;-54
2022/06/22 00:04:50;;;;;;;;;;;;;;;19.08;44.37;97497.88;4986248;28;19926;-58
2022/06/22 00:07:18;;;;;;;;;;;;;;;19.25;43.75;97499.22;4969651;28;20039;-58
2022/06/22 00:09:47;;;;;;;;;;;;;;;19.19;44.03;97495.22;4968076;28;19926;-55
2022/06/22 00:12:22;;;;;;;;;;;;;;;19.43;43.58;97502.13;4987184;28;19929;-57
2022/06/22 00:15:20;;;;;;;;;;;;;;;19.32;43.75;97496.53;4987997;28;19969;-57
2022/06/22 00:17:54;;;;;;;;;;;;;;;19.32;43.89;97499.28;4969860;28;19929;-55
2022/06/22 00:23:19;;;;;;;;;;;;;;;19.19;44.09;97502.69;4989022;28;20386;-56
2022/06/22 00:25:48;;;;;;;;;;;;;;;19.47;43.82;97502.97;4985556;28;19965;-55
2022/06/22 00:28:27;;;;;;;;;;;;;;;19.03;44.51;97494.66;4986305;28;20444;-57
2022/06/22 00:31:03;;;;;;;;;;;;;;;18.96;44.86;97500.06;4989993;28;19934;-58
2022/06/22 00:33:31;;;;;;;;;;;;;;;19.37;43.86;97498.94;4985124;28;19929;-57
2022/06/22 00:36:12;;;;;;;;;;;;;;;19.46;43.75;97490.38;4984716;28;19926;-57
2022/06/22 00:41:36;;;;;;;;;;;;;;;19.17;44.56;97471.97;4984831;28;19929;-58
2022/06/22 00:44:06;;;;;;;;;;;;;;;18.52;46.22;97465.72;4984078;28;20445;-58
2022/06/22 00:46:40;;;;;;;;;;;;;;;18.68;45.82;97464.75;4986335;28;19972;-57
2022/06/22 00:49:11;;;;;;;;;;;;;;;18.42;46.29;97465.59;4984500;28;20423;-58
2022/06/22 00:51:40;;;;;;;;;;;;;;;18.64;45.71;97472.94;4986522;28;20279;-57
2022/06/22 00:54:11;;;;;;;;;;;;;;;18.99;44.82;97466.28;4987409;28;19980;-57
2022/06/22 00:56:41;;;;;;;;;;;;;;;18.60;45.49;97466.63;4970787;28;19937;-57
2022/06/22 00:59:14;;;;;;;;;;;;;;;18.46;45.93;97460.94;4969932;28;20314;-59
2022/06/22 01:01:48;;;;;;;;;;;;;;;18.35;45.97;97455.31;4986058;28;19938;-58
2022/06/22 01:04:18;;;;;;;;;;;;;;;18.70;45.55;97460.50;4967956;28;19926;-57
2022/06/22 01:06:57;;;;;;;;;;;;;;;18.91;44.64;97450.84;4986946;28;19930;-58
2022/06/22 01:09:59;;;;;;;;;;;;;;;18.41;45.65;97448.31;4986024;28;19937;-57
2022/06/22 01:12:55;;;;;;;;;;;;;;;18.14;46.53;97458.56;4982100;28;19937;-56
2022/06/22 01:15:46;;;;;;;;;;;;;;;18.50;45.89;97439.78;4982400;28;19932;-57
2022/06/22 01:18:23;;;;;;;;;;;;;;;18.17;46.63;97433.09;4981914;28;19926;-57
2022/06/22 01:20:55;;;;;;;;;;;;;;;18.09;46.45;97428.63;4982768;28;19926;-57
2022/06/22 01:23:50;;;;;;;;;;;;;;;18.25;46.17;97429.25;4987061;28;20352;-56
2022/06/22 01:26:40;;;;;;;;;;;;;;;18.40;45.85;97421.97;4981360;28;20005;-58
2022/06/22 01:29:13;;;;;;;;;;;;;;;18.55;45.37;97420.19;4951645;28;19956;-54
2022/06/22 01:31:43;;;;;;;;;;;;;;;18.31;46.14;97424.22;4985402;28;20379;-57
2022/06/22 01:34:13;;;;;;;;;;;;;;;18.41;45.72;97426.28;4980953;28;19984;-56
2022/06/22 01:37:02;;;;;;;;;;;;;;;18.25;46.03;97423.75;4984656;28;19926;-58
2022/06/22 01:39:31;;;;;;;;;;;;;;;18.10;46.88;97427.47;4986083;28;20294;-58
2022/06/22 01:42:16;;;;;;;;;;;;;;;18.44;46.02;97433.03;5004864;28;20358;-57
2022/06/22 01:44:46;;;;;;;;;;;;;;;18.24;46.42;97427.66;5006531;28;19926;-57
2022/06/22 01:47:25;;;;;;;;;;;;;;;17.91;46.96;97419.38;4986030;28;20683;-57
2022/06/22 01:53:00;;;;;;;;;;;;;;;17.91;47.13;97430.38;5007880;28;19930;-57
2022/06/22 01:55:32;;;;;;;;;;;;;;;17.95;47.10;97426.50;5009422;28;20408;-57
2022/06/22 01:58:02;;;;;;;;;;;;;;;18.15;46.63;97432.66;5010880;28;19961;-58
2022/06/22 02:00:49;;;;;;;;;;;;;;;17.91;47.40;97427.63;4991713;28;19925;-58
2022/06/22 02:03:21;;;;;;;;;;;;;;;18.09;46.75;97425.09;4993923;28;20011;-58
2022/06/22 02:05:51;;;;;;;;;;;;;;;18.34;46.06;97434.47;5009069;28;19931;-58
2022/06/22 02:08:30;;;;;;;;;;;;;;;18.20;46.17;97437.81;5009230;28;19933;-57
2022/06/22 02:11:43;;;;;;;;;;;;;;;18.11;46.65;97437.31;5006477;28;19984;-58
2022/06/22 02:14:32;;;;;;;;;;;;;;;18.00;46.67;97452.84;5007530;28;19933;-57
2022/06/22 02:17:23;;;;;;;;;;;;;;;18.06;46.45;97445.88;5010502;28;20351;-57
2022/06/22 02:20:29;;;;;;;;;;;;;;;17.92;47.06;97443.72;5009081;28;19995;-57
2022/06/22 02:23:18;;;;;;;;;;;;;;;18.11;46.58;97445.56;5008462;28;20293;-59
2022/06/22 02:26:13;;;;;;;;;;;;;;;18.03;46.37;97443.88;5007310;28;19933;-58
2022/06/22 02:29:01;;;;;;;;;;;;;;;18.35;45.94;97443.50;5008410;28;19948;-58
2022/06/22 02:31:51;;;;;;;;;;;;;;;18.00;47.04;97445.44;5007906;28;20285;-57
2022/06/22 02:34:41;;;;;;;;;;;;;;;17.95;47.16;97444.94;4999963;28;19937;-57
2022/06/22 02:37:32;;;;;;;;;;;;;;;18.07;46.98;97436.47;5005893;28;19976;-57
2022/06/22 02:40:22;;;;;;;;;;;;;;;18.10;46.64;97423.94;5001252;28;20009;-57
2022/06/22 02:49:30;;;;;;;;;;;;;;;17.88;47.47;97418.13;4984582;28;19926;-57
2022/06/22 02:52:20;;;;;;;;;;;;;;;17.86;46.99;97417.72;4988023;28;19936;-56
2022/06/22 02:55:09;;;;;;;;;;;;;;;17.94;47.02;97415.84;4983740;28;19933;-57
2022/06/22 02:57:58;;;;;;;;;;;;;;;17.79;47.26;97418.44;4987967;28;20111;-57
2022/06/22 03:00:46;;;;;;;;;;;;;;;17.71;47.58;97419.44;4988212;28;20286;-57
2022/06/22 03:03:35;;;;;;;;;;;;;;;17.96;47.16;97425.34;4983546;28;20309;-56
2022/06/22 03:06:28;;;;;;;;;;;;;;;17.77;47.13;97417.97;4986406;28;19936;-54
2022/06/22 03:09:17;;;;;;;;;;;;;;;17.74;47.13;97427.00;4989986;28;19949;-57
2022/06/22 03:12:06;;;;;;;;;;;;;;;17.68;47.60;97433.13;4984549;28;19934;-55
2022/06/22 03:14:56;;;;;;;;;;;;;;;17.93;46.91;97425.28;4985768;28;19930;-57
2022/06/22 03:17:27;;;;;;;;;;;;;;;18.04;46.27;97423.47;4983217;28;19949;-57
2022/06/22 03:20:16;;;;;;;;;;;;;;;18.00;46.65;97428.13;4979751;28;19993;-58
2022/06/22 03:22:48;;;;;;;;;;;;;;;17.92;46.70;97440.19;4971953;28;19926;-57
2022/06/22 03:25:39;;;;;;;;;;;;;;;18.05;46.61;97433.28;4986606;28;19929;-57
2022/06/22 03:28:28;;;;;;;;;;;;;;;17.82;46.91;97422.38;4985608;28;20307;-58
2022/06/22 03:31:44;;;;;;;;;;;;;;;17.97;46.87;97413.16;4986436;28;20020;-58
2022/06/22 03:34:35;;;;;;;;;;;;;;;17.93;46.20;97425.28;4986845;28;20305;-58
2022/06/22 03:37:24;;;;;;;;;;;;;;;18.13;45.97;97450.69;4990619;28;20366;-54
2022/06/22 03:40:12;;;;;;;;;;;;;;;18.10;46.29;97440.44;4985585;28;19969;-56
2022/06/22 03:43:04;;;;;;;;;;;;;;;18.23;45.44;97441.78;4989329;28;19981;-56
2022/06/22 03:45:55;;;;;;;;;;;;;;;18.06;45.95;97443.16;4993809;28;19926;-58
2022/06/22 03:48:45;;;;;;;;;;;;;;;17.98;46.16;97450.47;4992646;28;20385;-57
2022/06/22 03:51:35;;;;;;;;;;;;;;;18.00;46.41;97437.19;4977606;28;19926;-57
2022/06/22 03:54:24;;;;;;;;;;;;;;;17.69;46.90;97430.03;4993125;28;20012;-54
2022/06/22 03:57:13;;;;;;;;;;;;;;;17.86;46.66;97436.19;4991352;28;20325;-57
2022/06/22 03:59:42;;;;;;;;;;;;;;;18.25;46.02;97434.75;4981817;28;19926;-57
2022/06/22 04:02:11;;;;;;;;;;;;;;;18.05;46.48;97431.31;4999295;28;20020;-57
2022/06/22 04:04:38;;;;;;;;;;;;;;;18.34;46.46;97434.47;4988928;28;19934;-57
2022/06/22 04:07:07;;;;;;;;;;;;;;;18.08;47.22;97440.00;4982880;28;19936;-58
2022/06/22 04:09:34;;;;;;;;;;;;;;;18.11;47.13;97440.06;4989265;28;19930;-57
2022/06/22 04:12:05;;;;;;;;;;;;;;;17.99;47.54;97443.81;4990780;28;19982;-58
2022/06/22 04:14:40;;;;;;;;;;;;;;;18.22;46.84;97434.72;4970005;28;20253;-58
2022/06/22 04:17:37;;;;;;;;;;;;;;;18.42;45.88;97438.88;4970227;28;19925;-57
2022/06/22 04:20:08;;;;;;;;;;;;;;;18.18;46.72;97444.88;4985542;28;19977;-58
2022/06/22 04:22:38;;;;;;;;;;;;;;;18.33;46.47;97441.16;4989794;28;20589;-58
2022/06/22 04:25:13;;;;;;;;;;;;;;;18.00;47.23;97447.34;4988278;28;19984;-57
2022/06/22 04:27:42;;;;;;;;;;;;;;;17.96;47.33;97452.03;4987075;28;19929;-58
2022/06/22 04:30:12;;;;;;;;;;;;;;;18.35;46.44;97449.00;4985128;28;19969;-56
2022/06/22 04:32:40;;;;;;;;;;;;;;;18.73;45.88;97439.66;4994091;28;19926;-58
2022/06/22 04:35:21;;;;;;;;;;;;;;;18.71;45.95;97440.06;4981584;28;19961;-58
2022/06/22 04:37:50;;;;;;;;;;;;;;;18.47;46.39;97444.06;4992884;28;20013;-56
2022/06/22 04:40:45;;;;;;;;;;;;;;;18.46;46.83;97442.47;4986470;28;19957;-58
2022/06/22 04:43:13;;;;;;;;;;;;;;;18.51;46.45;97436.63;4985792;28;19984;-58
2022/06/22 04:45:42;;;;;;;;;;;;;;;18.18;47.34;97442.91;4988228;28;19925;-57
2022/06/22 04:48:14;;;;;;;;;;;;;;;18.71;46.04;97426.28;4991489;28;20360;-55
2022/06/22 04:50:44;;;;;;;;;;;;;;;18.68;46.12;97418.00;4986537;28;19930;-58
2022/06/22 04:53:19;;;;;;;;;;;;;;;18.66;46.31;97432.09;4987241;28;20173;-58
2022/06/22 04:55:47;;;;;;;;;;;;;;;19.06;45.47;97436.88;4988090;28;19926;-58
2022/06/22 04:58:30;;;;;;;;;;;;;;;19.13;45.61;97436.16;4988136;28;20518;-58
2022/06/22 05:00:59;;;;;;;;;;;;;;;19.05;45.67;97451.00;4981726;28;20021;-58
2022/06/22 05:03:27;;;;;;;;;;;;;;;19.30;45.17;97452.06;4986541;28;19933;-58
2022/06/22 05:05:56;;;;;;;;;;;;;;;19.48;45.09;97454.16;4985409;28;19932;-58
2022/06/22 05:08:26;;;;;;;;;;;;;;;19.57;44.33;97447.16;4985606;28;20373;-58
2022/06/22 05:10:56;;;;;;;;;;;;;;;19.48;45.14;97454.94;4986270;28;19926;-55
2022/06/22 05:13:53;;;;;;;;;;;;;;;19.33;45.37;97454.06;4983667;28;19948;-55
2022/06/22 05:16:46;;;;;;;;;;;;;;;19.56;45.49;97442.03;4984422;28;19926;-58
2022/06/22 05:19:14;;;;;;;;;;;;;;;19.62;45.35;97443.28;4983972;28;19926;-59
2022/06/22 05:21:45;;;;;;;;;;;;;;;19.61;44.61;97433.44;4984744;28;20207;-59
2022/06/22 05:24:17;;;;;;;;;;;;;;;19.67;45.14;97451.22;4983522;28;19925;-59
2022/06/22 05:27:10;;;;;;;;;;;;;;;20.07;44.91;97444.75;4983032;28;19942;-55
2022/06/22 05:29:39;;;;;;;;;;;;;;;20.08;44.28;97442.78;4984416;28;20002;-58
2022/06/22 05:32:08;;;;;;;;;;;;;;;20.13;44.19;97445.19;4983072;28;20344;-58
2022/06/22 05:34:37;;;;;;;;;;;;;;;20.00;44.74;97441.97;4986880;28;19960;-58
2022/06/22 05:37:08;;;;;;;;;;;;;;;20.03;44.53;97449.50;4984613;28;20366;-58
2022/06/22 05:39:36;;;;;;;;;;;;;;;19.92;44.47;97465.19;4986179;28;19933;-57
2022/06/22 05:42:04;;;;;;;;;;;;;;;20.04;44.51;97467.63;4986796;28;19965;-57
2022/06/22 05:44:33;;;;;;;;;;;;;;;20.07;44.38;97464.06;4986770;28;19952;-58
2022/06/22 05:47:14;;;;;;;;;;;;;;;20.23;44.83;97468.50;4986219;28;19930;-58
2022/06/22 05:49:44;;;;;;;;;;;;;;;20.40;44.36;97465.84;4987321;28;19932;-59
2022/06/22 05:52:14;;;;;;;;;;;;;;;20.30;44.20;97466.59;4986464;28;19929;-58
2022/06/22 05:54:42;;;;;;;;;;;;;;;20.58;44.16;97460.44;4987130;28;19953;-59
2022/06/22 05:57:13;;;;;;;;;;;;;;;20.85;43.50;97457.38;4986411;28;20524;-58
2022/06/22 05:59:42;;;;;;;;;;;;;;;20.77;43.87;97451.03;4986463;28;19961;-58
2022/06/22 06:02:11;;;;;;;;;;;;;;;20.75;45.18;97445.09;4985456;28;19976;-55
2022/06/22 06:04:45;;;;;;;;;;;;;;;20.87;44.59;97444.75;4987370;28;19949;-58
2022/06/22 06:07:25;;;;;;;;;;;;;;;21.06;44.10;97457.44;4986357;28;20437;-58
2022/06/22 06:09:57;;;;;;;;;;;;;;;20.96;43.78;97457.41;4984926;28;19929;-55
2022/06/22 06:12:28;;;;;;;;;;;;;;;20.93;43.96;97454.25;4968601;28;19949;-59
2022/06/22 06:14:57;;;;;;;;;;;;;;;21.01;44.09;97443.22;4986950;28;20014;-58
2022/06/22 06:17:25;;;;;;;;;;;;;;;21.03;44.04;97452.66;4985557;28;20006;-58
2022/06/22 06:19:54;;;;;;;;;;;;;;;20.99;44.25;97451.91;4985636;28;20275;-58
2022/06/22 06:22:23;;;;;;;;;;;;;;;20.93;44.17;97451.50;4987036;28;20029;-58
2022/06/22 06:27:41;;;;;;;;;;;;;;;20.96;45.83;97451.88;4981287;28;20009;-59
2022/06/22 06:30:16;;;;;;;;;;;;;;;21.05;46.48;97452.31;4985400;28;20029;-59
2022/06/22 06:32:46;;;;;;;;;;;;;;;21.35;45.44;97457.50;4985284;28;19933;-59
2022/06/22 06:35:15;;;;;;;;;;;;;;;21.28;45.14;97458.25;4965595;28;19930;-59
2022/06/22 06:37:45;;;;;;;;;;;;;;;21.34;46.38;97451.16;4990678;28;19929;-58
2022/06/22 06:40:14;;;;;;;;;;;;;;;21.34;45.07;97453.94;4989636;28;19930;-59
2022/06/22 06:42:43;;;;;;;;;;;;;;;21.29;44.84;97447.97;4986588;28;20033;-59
2022/06/22 06:45:13;;;;;;;;;;;;;;;21.23;46.09;97455.88;4987139;28;19988;-58
2022/06/22 06:47:41;;;;;;;;;;;;;;;21.32;45.27;97447.25;4990851;28;19934;-59
2022/06/22 06:53:06;;;;;;;;;;;;;;;21.32;44.60;97448.03;4991192;28;19925;-58
2022/06/22 06:55:35;;;;;;;;;;;;;;;21.50;44.40;97455.53;4989214;28;19926;-58
2022/06/22 06:58:06;;;;;;;;;;;;;;;21.66;44.96;97453.94;4988229;28;19925;-59
2022/06/22 07:00:34;;;;;;;;;;;;;;;21.82;44.64;97455.53;4985059;28;19940;-60
2022/06/22 07:03:02;;;;;;;;;;;;;;;21.85;44.02;97450.00;4989344;28;19933;-57
2022/06/22 07:05:30;;;;;;;;;;;;;;;21.99;43.91;97446.41;4989523;28;19933;-58
2022/06/22 07:08:00;;;;;;;;;;;;;;;22.32;42.72;97450.72;4988526;28;19925;-58
2022/06/22 07:10:50;;;;;;;;;;;;;;;22.33;42.99;97451.50;4991090;28;19926;-59
2022/06/22 07:13:20;;;;;;;;;;;;;;;22.43;43.40;97447.91;4990153;28;20286;-58
2022/06/22 07:18:42;;;;;;;;;;;;;;;22.40;43.17;97455.03;4990547;28;20020;-59
2022/06/22 07:21:16;;;;;;;;;;;;;;;22.32;43.59;97452.69;4988091;28;19969;-56
2022/06/22 07:23:45;;;;;;;;;;;;;;;22.39;42.98;97452.66;4987845;28;19930;-55
2022/06/22 07:26:23;;;;;;;;;;;;;;;22.40;44.00;97460.56;4988380;28;19932;-58
2022/06/22 07:28:53;;;;;;;;;;;;;;;22.42;43.46;97458.19;4991748;28;20301;-58
2022/06/22 07:31:23;;;;;;;;;;;;;;;22.63;44.06;97456.53;4989094;28;20005;-58
2022/06/22 07:33:52;;;;;;;;;;;;;;;22.52;42.96;97447.47;4983567;28;19938;-58
2022/06/22 07:36:22;;;;;;;;;;;;;;;22.61;43.50;97453.38;4989319;28;20611;-55
2022/06/22 07:38:51;;;;;;;;;;;;;;;22.78;42.95;97460.81;4988323;28;19933;-58
2022/06/22 07:41:20;;;;;;;;;;;;;;;22.70;42.94;97462.06;5003738;28;20274;-59
2022/06/22 07:43:50;;;;;;;;;;;;;;;22.73;43.30;97467.56;5008840;28;19980;-58
2022/06/22 07:46:19;;;;;;;;;;;;;;;22.86;42.97;97462.38;4991306;28;19932;-57
2022/06/22 07:48:47;;;;;;;;;;;;;;;22.81;43.12;97457.25;5008118;28;19925;-59
2022/06/22 07:51:16;;;;;;;;;;;;;;;22.97;42.77;97451.25;5004361;28;19925;-59
2022/06/22 07:53:46;;;;;;;;;;;;;;;22.92;42.48;97449.69;5008200;28;19925;-59
2022/06/22 07:56:15;;;;;;;;;;;;;;;22.95;43.14;97442.53;5005454;28;19933;-59
2022/06/22 07:58:43;;;;;;;;;;;;;;;23.05;43.41;97446.44;5008141;28;20570;-59
2022/06/22 08:01:16;;;;;;;;;;;;;;;22.98;43.85;97445.31;5006127;28;19925;-57
2022/06/22 08:03:45;;;;;;;;;;;;;;;23.11;43.14;97450.38;5006602;28;20354;-58
2022/06/22 08:06:15;;;;;;;;;;;;;;;23.32;42.54;97449.44;5006867;28;20040;-59
2022/06/22 08:08:43;;;;;;;;;;;;;;;23.48;42.67;97460.81;5009742;28;20285;-56
2022/06/22 08:11:16;;;;;;;;;;;;;;;23.64;42.09;97452.78;5005419;28;19933;-57
2022/06/22 08:13:45;;;;;;;;;;;;;;;23.88;41.25;97453.78;5001398;28;19936;-56
2022/06/22 08:16:16;;;;;;;;;;;;;;;23.90;42.12;97454.16;5001777;28;19930;-59
2022/06/22 08:18:45;;;;;;;;;;;;;;;24.05;41.73;97447.25;5008174;28;20366;-59
2022/06/22 08:24:28;;;;;;;;;;;;;;;23.99;41.81;97454.47;5005846;28;19937;-57
2022/06/22 08:26:59;;;;;;;;;;;;;;;24.19;40.21;97453.88;5007891;28;19925;-58
2022/06/22 08:29:28;;;;;;;;;;;;;;;24.11;41.43;97453.16;5007367;28;19933;-58
2022/06/22 08:31:58;;;;;;;;;;;;;;;24.22;40.85;97448.28;5009238;28;19925;-55
2022/06/22 08:34:48;;;;;;;;;;;;;;;24.39;40.16;97443.75;5002396;28;19983;-59
2022/06/22 08:37:17;;;;;;;;;;;;;;;24.02;41.26;97448.09;5008068;28;19933;-60
2022/06/22 08:39:47;;;;;;;;;;;;;;;24.02;42.16;97450.88;5007192;28;19929;-58
2022/06/22 08:42:19;;;;;;;;;;;;;;;24.10;41.73;97456.34;5004332;28;20382;-58
2022/06/22 08:44:49;;;;;;;;;;;;;;;24.12;41.29;97453.94;5008198;28;20359;-59
2022/06/22 08:47:26;;;;;;;;;;;;;;;24.25;41.42;97443.91;5004489;28;19991;-58
2022/06/22 08:49:56;;;;;;;;;;;;;;;24.38;40.89;97450.50;5004947;28;19936;-58
2022/06/22 08:52:34;;;;;;;;;;;;;;;24.41;40.54;97449.69;5008317;28;19971;-58
2022/06/22 08:55:28;;;;;;;;;;;;;;;24.51;40.72;97453.56;5006096;28;19934;-59
2022/06/22 08:58:04;;;;;;;;;;;;;;;24.51;40.66;97453.56;5005137;28;19930;-58
2022/06/22 09:00:55;;;;;;;;;;;;;;;24.59;40.89;97454.25;5005276;28;20022;-57
2022/06/22 09:03:30;;;;;;;;;;;;;;;24.55;40.30;97454.28;5006283;28;19933;-54
2022/06/22 09:09:01;;;;;;;;;;;;;;;24.97;39.37;97447.38;5004992;28;20344;-58
2022/06/22 09:11:56;;;;;;;;;;;;;;;25.04;39.03;97447.31;5005530;28;19929;-58
2022/06/22 09:14:39;;;;;;;;;;;;;;;24.95;39.18;97460.91;5005908;28;20020;-59
2022/06/22 09:17:15;;;;;;;;;;;;;;;25.04;39.65;97458.41;4998185;28;19937;-59
2022/06/22 09:20:14;;;;;;;;;;;;;;;25.02;39.88;97471.16;5007454;28;19932;-57
2022/06/22 09:23:14;;;;;;;;;;;;;;;24.95;39.34;97460.91;5004724;28;20084;-59
2022/06/22 09:25:45;;;;;;;;;;;;;;;25.24;39.32;97455.75;5004617;28;19980;-59
2022/06/22 09:28:16;;;;;;;;;;;;;;;25.18;38.83;97459.44;5006511;28;19933;-59
2022/06/22 09:30:48;;;;;;;;;;;;;;;25.19;38.75;97456.22;5004211;28;19949;-59
2022/06/22 09:33:20;;;;;;;;;;;;;;;25.12;38.79;97458.34;5005757;28;19933;-60
2022/06/22 09:36:06;;;;;;;;;;;;;;;25.01;39.22;97467.59;5003078;28;19926;-59
2022/06/22 09:38:40;;;;;;;;;;;;;;;25.03;38.83;97461.59;4999332;28;19936;-59
2022/06/22 09:41:16;;;;;;;;;;;;;;;25.12;38.83;97455.56;5004483;28;19926;-59
2022/06/22 09:43:54;;;;;;;;;;;;;;;25.11;38.49;97462.34;5005319;28;19929;-58
2022/06/22 09:46:29;;;;;;;;;;;;;;;25.01;38.62;97462.03;5006797;28;20366;-59
2022/06/22 09:49:05;;;;;;;;;;;;;;;25.09;39.20;97462.75;5005160;28;19961;-60
2022/06/22 09:52:07;;;;;;;;;;;;;;;25.24;38.13;97463.31;5008049;28;20447;-59
2022/06/22 09:57:38;;;;;;;;;;;;;;;25.27;39.06;97470.84;5003640;28;20341;-59
2022/06/22 10:00:07;;;;;;;;;;;;;;;25.21;39.72;97472.50;5003259;28;20357;-59
2022/06/22 10:02:50;;;;;;;;;;;;;;;25.29;38.64;97463.63;5002141;28;20452;-59
2022/06/22 10:05:31;;;;;;;;;;;;;;;25.31;38.51;97454.88;4991323;28;19925;-60
2022/06/22 10:08:03;;;;;;;;;;;;;;;25.29;38.16;97454.50;5005584;28;19929;-59
2022/06/22 10:10:35;;;;;;;;;;;;;;;25.32;39.49;97456.47;5005731;28;19956;-57
2022/06/22 10:13:07;;;;;;;;;;;;;;;25.31;38.33;97452.91;5007754;28;19933;-57
2022/06/22 10:15:42;;;;;;;;;;;;;;;25.21;38.37;97456.63;5009118;28;20350;-58
2022/06/22 10:18:43;;;;;;;;;;;;;;;25.11;38.64;97465.91;5006270;28;19957;-59
2022/06/22 10:21:19;;;;;;;;;;;;;;;25.27;37.99;97457.72;5006249;28;20467;-55
2022/06/22 10:23:55;;;;;;;;;;;;;;;25.06;38.37;97461.59;5009945;28;19925;-59
2022/06/22 10:26:28;;;;;;;;;;;;;;;25.06;38.12;97446.91;5004888;28;19930;-56
2022/06/22 10:28:59;;;;;;;;;;;;;;;24.91;38.71;97454.63;5009951;28;20370;-56
2022/06/22 10:31:30;;;;;;;;;;;;;;;24.94;38.65;97459.34;5009001;28;19929;-59
2022/06/22 10:34:12;;;;;;;;;;;;;;;24.98;38.52;97454.53;5006136;28;20297;-57
2022/06/22 10:36:53;;;;;;;;;;;;;;;25.08;38.46;97467.50;5006446;28;19939;-59
2022/06/22 10:39:26;;;;;;;;;;;;;;;25.36;37.66;97456.41;5009157;28;19932;-59
2022/06/22 10:45:11;;;;;;;;;;;;;;;25.66;36.84;97459.09;5008428;28;19975;-59
2022/06/22 10:47:48;;;;;;;;;;;;;;;25.58;37.71;97464.00;5008999;28;20040;-58
2022/06/22 10:50:23;;;;;;;;;;;;;;;25.41;37.50;97453.94;5007524;28;19933;-58
2022/06/22 10:53:27;;;;;;;;;;;;;;;25.56;36.72;97455.28;5003538;28;19933;-59
2022/06/22 10:55:57;;;;;;;;;;;;;;;25.74;36.84;97459.78;5003605;28;19956;-57
2022/06/22 10:58:40;;;;;;;;;;;;;;;25.80;36.48;97458.91;5008768;28;19929;-59
2022/06/22 11:01:29;;;;;;;;;;;;;;;25.83;36.74;97457.25;5007271;28;19929;-59
2022/06/22 11:04:05;;;;;;;;;;;;;;;25.86;36.75;97456.41;5008258;28;20409;-59
2022/06/22 11:06:38;;;;;;;;;;;;;;;25.68;37.38;97462.25;5009087;28;20179;-59
2022/06/22 11:09:36;;;;;;;;;;;;;;;25.71;37.00;97450.25;5006972;28;19937;-56
2022/06/22 11:12:21;;;;;;;;;;;;;;;25.86;37.15;97448.06;4988718;28;19929;-58
2022/06/22 11:15:04;;;;;;;;;;;;;;;25.96;36.77;97447.09;5007485;28;20238;-58
2022/06/22 11:17:45;;;;;;;;;;;;;;;26.10;36.53;97451.63;4987031;28;20300;-58
2022/06/22 11:20:20;;;;;;;;;;;;;;;26.21;36.91;97443.06;5009798;28;20255;-59
2022/06/22 11:22:54;;;;;;;;;;;;;;;26.28;35.99;97445.72;5006801;28;19929;-58
2022/06/22 11:31:04;;;;;;;;;;;;;;;26.23;36.67;97446.22;5007870;28;19925;-58
2022/06/22 11:33:50;;;;;;;;;;;;;;;26.18;36.46;97449.47;4989052;28;19926;-58
2022/06/22 11:36:26;;;;;;;;;;;;;;;26.22;36.42;97444.63;4988575;28;19955;-59
2022/06/22 11:39:22;;;;;;;;;;;;;;;26.35;36.56;97445.56;5007904;28;19925;-59
2022/06/22 11:42:00;;;;;;;;;;;;;;;26.34;36.30;97446.78;4991581;28;20033;-58
2022/06/22 11:44:38;;;;;;;;;;;;;;;26.40;36.51;97445.06;5006492;28;20024;-59
2022/06/22 11:47:07;;;;;;;;;;;;;;;26.23;36.49;97458.13;5009425;28;19933;-59
2022/06/22 11:49:39;;;;;;;;;;;;;;;26.06;36.91;97454.47;5009235;28;19980;-59
2022/06/22 11:52:16;;;;;;;;;;;;;;;26.07;36.84;97461.59;5008684;28;19934;-57
2022/06/22 11:54:48;;;;;;;;;;;;;;;26.06;36.75;97462.81;4995489;28;19935;-58
2022/06/22 11:57:26;;;;;;;;;;;;;;;25.95;36.50;97453.88;5008624;28;19930;-59
2022/06/22 12:00:03;;;;;;;;;;;;;;;26.07;37.07;97455.25;5007190;28;20404;-59
2022/06/22 12:02:47;;;;;;;;;;;;;;;25.99;37.27;97454.56;5010573;28;20012;-58
2022/06/22 12:05:22;;;;;;;;;;;;;;;26.04;37.27;97445.72;5009344;28;19961;-59
2022/06/22 12:07:55;;;;;;;;;;;;;;;26.16;36.87;97455.50;5009270;28;20040;-59
2022/06/22 12:10:28;;;;;;;;;;;;;;;26.08;36.94;97442.91;5006532;28;19929;-59
2022/06/22 12:13:06;;;;;;;;;;;;;;;26.13;36.71;97437.63;5008312;28;20360;-58
2022/06/22 12:15:37;;;;;;;;;;;;;;;26.03;36.91;97437.81;5008527;28;20437;-59
2022/06/22 12:18:34;;;;;;;;;;;;;;;25.94;37.20;97440.34;5004785;28;19936;-55
2022/06/22 12:21:24;;;;;;;;;;;;;;;26.08;36.84;97435.31;5007688;28;19925;-58
2022/06/22 12:24:04;;;;;;;;;;;;;;;26.17;36.85;97440.34;5006123;28;20416;-54
2022/06/22 12:26:36;;;;;;;;;;;;;;;25.92;37.78;97443.56;5003970;28;19926;-59
2022/06/22 12:29:20;;;;;;;;;;;;;;;25.93;37.37;97438.78;5007263;28;19936;-58
2022/06/22 12:31:53;;;;;;;;;;;;;;;26.17;36.93;97436.78;5009328;28;20019;-58
2022/06/22 12:34:38;;;;;;;;;;;;;;;25.79;37.04;97434.28;5007013;28;19965;-59
2022/06/22 12:37:07;;;;;;;;;;;;;;;25.74;37.33;97443.09;5006995;28;19929;-59
2022/06/22 12:39:38;;;;;;;;;;;;;;;25.70;37.94;97442.34;4990405;28;20423;-57
2022/06/22 12:42:11;;;;;;;;;;;;;;;25.80;37.20;97446.97;5003763;28;20409;-59
2022/06/22 12:44:57;;;;;;;;;;;;;;;25.59;37.66;97446.09;5006410;28;19926;-60
2022/06/22 12:47:49;;;;;;;;;;;;;;;25.72;37.75;97440.69;5008288;28;19933;-59
2022/06/22 12:50:43;;;;;;;;;;;;;;;25.69;37.45;97440.78;5006407;28;19934;-57
2022/06/22 12:53:12;;;;;;;;;;;;;;;25.45;37.72;97437.97;4964194;28;20028;-59
2022/06/22 12:55:42;;;;;;;;;;;;;;;25.67;37.68;97438.41;5009059;28;19937;-58
2022/06/22 12:58:12;;;;;;;;;;;;;;;25.71;37.50;97433.56;5007312;28;19929;-57
2022/06/22 13:00:40;;;;;;;;;;;;;;;25.68;37.49;97433.66;5004986;28;19933;-58
2022/06/22 13:03:10;;;;;;;;;;;;;;;25.61;38.05;97434.53;5007736;28;19933;-58
2022/06/22 13:05:38;;;;;;;;;;;;;;;25.60;38.41;97432.97;5010263;28;21317;-58
2022/06/22 13:08:07;;;;;;;;;;;;;;;25.62;37.63;97436.13;5009015;28;20381;-59
2022/06/22 13:10:40;;;;;;;;;;;;;;;25.74;37.54;97426.38;4978082;28;20001;-59
2022/06/22 13:13:11;;;;;;;;;;;;;;;25.59;38.21;97432.19;5008127;28;19929;-59
2022/06/22 13:16:04;;;;;;;;;;;;;;;25.50;37.82;97434.72;5008308;28;19925;-59
2022/06/22 13:18:34;;;;;;;;;;;;;;;25.52;38.89;97432.31;5007834;28;19929;-59
2022/06/22 13:21:04;;;;;;;;;;;;;;;25.53;39.37;97421.97;5008176;28;20330;-59
2022/06/22 13:23:36;;;;;;;;;;;;;;;25.53;38.41;97424.75;5009765;28;20011;-58
2022/06/22 13:26:06;;;;;;;;;;;;;;;25.46;37.83;97422.88;4987517;28;20378;-59
2022/06/22 13:28:47;;;;;;;;;;;;;;;25.46;38.25;97417.31;5006972;28;19932;-59
2022/06/22 13:31:20;;;;;;;;;;;;;;;25.57;37.68;97408.78;5003948;28;19929;-58
2022/06/22 13:33:49;;;;;;;;;;;;;;;25.49;38.17;97410.09;4989304;28;20280;-59
2022/06/22 13:36:20;;;;;;;;;;;;;;;25.56;38.11;97402.41;5006687;28;20080;-58
2022/06/22 13:39:00;;;;;;;;;;;;;;;25.58;38.21;97402.03;5005625;28;20447;-59
2022/06/22 13:41:34;;;;;;;;;;;;;;;25.67;38.59;97401.47;4988907;28;20298;-55
2022/06/22 13:44:12;;;;;;;;;;;;;;;25.71;38.13;97400.19;4987424;28;19972;-59
2022/06/22 13:46:45;;;;;;;;;;;;;;;25.73;38.99;97402.56;4985077;28;19934;-59
2022/06/22 13:49:15;;;;;;;;;;;;;;;25.81;37.86;97399.25;4986319;28;20311;-59
2022/06/22 13:51:58;;;;;;;;;;;;;;;25.81;39.42;97398.47;4987290;28;19930;-57
2022/06/22 13:54:47;;;;;;;;;;;;;;;25.75;37.50;97400.16;4985406;28;19934;-58
2022/06/22 13:57:40;;;;;;;;;;;;;;;25.59;37.66;97398.81;4986670;28;19926;-59
2022/06/22 14:00:11;;;;;;;;;;;;;;;25.58;38.49;97397.25;4985808;28;19957;-59
2022/06/22 14:02:46;;;;;;;;;;;;;;;25.43;37.92;97404.25;4986878;28;19934;-59
2022/06/22 14:05:18;;;;;;;;;;;;;;;25.33;38.64;97407.97;4987232;28;20024;-61
2022/06/22 14:10:42;;;;;;;;;;;;;;;25.40;39.70;97407.06;4988253;28;19940;-59
2022/06/22 14:13:17;;;;;;;;;;;;;;;25.41;39.09;97403.88;4985505;28;19937;-58
2022/06/22 14:18:47;;;;;;;;;;;;;;;25.44;39.04;97400.25;4981719;28;20009;-60
2022/06/22 14:21:21;;;;;;;;;;;;;;;25.39;39.18;97399.94;4984100;28;20383;-59
2022/06/22 14:23:49;;;;;;;;;;;;;;;25.38;38.41;97399.16;4985885;28;19929;-59
2022/06/22 14:26:32;;;;;;;;;;;;;;;25.18;39.73;97401.06;4969157;28;20245;-58